sensor_id;sensor_type;location;lat;lon;timestamp;P1;durP1;ratioP1;P2;durP2;ratioP2
487;SDS011;16586;48.976;9.584;2022-09-09T00:00:26;1.30;;;0.60;;
487;SDS011;16586;48.976;9.584;2022-09-09T00:02:58;1.10;;;0.60;;
487;SDS011;16586;48.976;9.584;2022-09-09T00:05:36;1.00;;;0.55;;
487;SDS011;16586;48.976;9.584;2022-09-09T00:08:12;1.10;;;0.50;;
487;SDS011;16586;48.976;9.584;2022-09-09T00:10:45;1.40;;;0.75;;
487;SDS011;16586;48.976;9.584;2022-09-09T00:13:22;1.50;;;0.70;;
487;SDS011;16586;48.976;9.584;2022-09-09T00:15:57;1.10;;;0.50;;
487;SDS011;16586;48.976;9.584;2022-09-09T00:18:29;1.60;;;0.60;;
487;SDS011;16586;48.976;9.584;2022-09-09T00:21:05;1.20;;;0.50;;
487;SDS011;16586;48.976;9.584;2022-09-09T00:23:34;2.10;;;0.90;;
487;SDS011;16586;48.976;9.584;2022-09-09T00:26:05;1.17;;;0.60;;
487;SDS011;16586;48.976;9.584;2022-09-09T00:28:41;1.80;;;0.70;;
487;SDS011;16586;48.976;9.584;2022-09-09T00:31:15;1.50;;;0.80;;
487;SDS011;16586;48.976;9.584;2022-09-09T00:33:47;1.27;;;0.60;;
487;SDS011;16586;48.976;9.584;2022-09-09T00:36:17;1.25;;;0.60;;
487;SDS011;16586;48.976;9.584;2022-09-09T00:38:48;1.13;;;0.60;;
487;SDS011;16586;48.976;9.584;2022-09-09T00:41:19;1.38;;;0.60;;
487;SDS011;16586;48.976;9.584;2022-09-09T00:43:56;1.20;;;0.52;;
487;SDS011;16586;48.976;9.584;2022-09-09T00:46:38;1.20;;;0.50;;
487;SDS011;16586;48.976;9.584;2022-09-09T00:49:15;1.77;;;0.50;;
487;SDS011;16586;48.976;9.584;2022-09-09T00:51:54;1.10;;;0.57;;
487;SDS011;16586;48.976;9.584;2022-09-09T00:54:33;3.80;;;0.70;;
487;SDS011;16586;48.976;9.584;2022-09-09T00:57:11;2.15;;;0.50;;
487;SDS011;16586;48.976;9.584;2022-09-09T00:59:47;1.10;;;0.50;;
487;SDS011;16586;48.976;9.584;2022-09-09T01:02:20;1.10;;;0.50;;
487;SDS011;16586;48.976;9.584;2022-09-09T01:04:53;2.00;;;0.70;;
487;SDS011;16586;48.976;9.584;2022-09-09T01:07:22;1.20;;;0.52;;
487;SDS011;16586;48.976;9.584;2022-09-09T01:09:54;1.30;;;0.70;;
487;SDS011;16586;48.976;9.584;2022-09-09T01:12:28;1.10;;;0.60;;
487;SDS011;16586;48.976;9.584;2022-09-09T01:15:07;1.10;;;0.50;;
487;SDS011;16586;48.976;9.584;2022-09-09T01:17:39;1.20;;;0.50;;
487;SDS011;16586;48.976;9.584;2022-09-09T01:20:17;1.60;;;0.50;;
487;SDS011;16586;48.976;9.584;2022-09-09T01:22:49;1.90;;;0.60;;
487;SDS011;16586;48.976;9.584;2022-09-09T01:25:28;1.10;;;0.60;;
487;SDS011;16586;48.976;9.584;2022-09-09T01:28:29;1.33;;;0.60;;
487;SDS011;16586;48.976;9.584;2022-09-09T01:30:57;1.27;;;0.50;;
487;SDS011;16586;48.976;9.584;2022-09-09T01:33:26;1.00;;;0.50;;
487;SDS011;16586;48.976;9.584;2022-09-09T01:35:53;1.40;;;0.60;;
487;SDS011;16586;48.976;9.584;2022-09-09T01:38:25;1.40;;;0.80;;
487;SDS011;16586;48.976;9.584;2022-09-09T01:40:53;1.17;;;0.70;;
487;SDS011;16586;48.976;9.584;2022-09-09T01:43:21;1.08;;;0.60;;
487;SDS011;16586;48.976;9.584;2022-09-09T01:45:50;1.70;;;0.60;;
487;SDS011;16586;48.976;9.584;2022-09-09T01:48:19;1.10;;;0.50;;
487;SDS011;16586;48.976;9.584;2022-09-09T01:50:48;1.10;;;0.60;;
487;SDS011;16586;48.976;9.584;2022-09-09T01:53:15;1.00;;;0.50;;
487;SDS011;16586;48.976;9.584;2022-09-09T01:55:45;1.40;;;0.80;;
487;SDS011;16586;48.976;9.584;2022-09-09T01:58:22;1.70;;;0.60;;
487;SDS011;16586;48.976;9.584;2022-09-09T02:01:00;1.40;;;0.70;;
487;SDS011;16586;48.976;9.584;2022-09-09T02:03:32;1.77;;;0.80;;
487;SDS011;16586;48.976;9.584;2022-09-09T02:06:05;1.20;;;0.60;;
487;SDS011;16586;48.976;9.584;2022-09-09T02:08:42;1.15;;;0.60;;
487;SDS011;16586;48.976;9.584;2022-09-09T02:11:13;1.10;;;0.50;;
487;SDS011;16586;48.976;9.584;2022-09-09T02:13:42;1.58;;;0.60;;
487;SDS011;16586;48.976;9.584;2022-09-09T02:16:12;1.20;;;0.60;;
487;SDS011;16586;48.976;9.584;2022-09-09T02:18:45;1.80;;;0.68;;
487;SDS011;16586;48.976;9.584;2022-09-09T02:21:16;1.30;;;0.67;;
487;SDS011;16586;48.976;9.584;2022-09-09T02:23:44;1.25;;;0.60;;
487;SDS011;16586;48.976;9.584;2022-09-09T02:26:17;1.75;;;0.50;;
487;SDS011;16586;48.976;9.584;2022-09-09T02:28:50;1.30;;;0.70;;
487;SDS011;16586;48.976;9.584;2022-09-09T02:31:19;1.20;;;0.60;;
487;SDS011;16586;48.976;9.584;2022-09-09T02:33:50;1.10;;;0.60;;
487;SDS011;16586;48.976;9.584;2022-09-09T02:36:20;1.50;;;0.65;;
487;SDS011;16586;48.976;9.584;2022-09-09T02:38:50;1.52;;;0.70;;
487;SDS011;16586;48.976;9.584;2022-09-09T02:41:19;1.60;;;0.57;;
487;SDS011;16586;48.976;9.584;2022-09-09T02:43:51;1.40;;;0.63;;
487;SDS011;16586;48.976;9.584;2022-09-09T02:46:23;1.65;;;0.60;;
487;SDS011;16586;48.976;9.584;2022-09-09T02:48:59;1.40;;;0.70;;
487;SDS011;16586;48.976;9.584;2022-09-09T02:51:32;1.10;;;0.50;;
487;SDS011;16586;48.976;9.584;2022-09-09T02:54:09;1.70;;;0.60;;
487;SDS011;16586;48.976;9.584;2022-09-09T02:56:40;1.10;;;0.50;;
487;SDS011;16586;48.976;9.584;2022-09-09T02:59:13;1.80;;;0.70;;
487;SDS011;16586;48.976;9.584;2022-09-09T03:01:41;1.80;;;0.80;;
487;SDS011;16586;48.976;9.584;2022-09-09T03:04:09;1.20;;;0.50;;
487;SDS011;16586;48.976;9.584;2022-09-09T03:06:36;1.10;;;0.50;;
487;SDS011;16586;48.976;9.584;2022-09-09T03:09:03;1.20;;;0.70;;
487;SDS011;16586;48.976;9.584;2022-09-09T03:11:30;1.90;;;0.60;;
487;SDS011;16586;48.976;9.584;2022-09-09T03:13:57;1.00;;;0.50;;
487;SDS011;16586;48.976;9.584;2022-09-09T03:16:25;1.45;;;0.63;;
487;SDS011;16586;48.976;9.584;2022-09-09T03:18:52;1.65;;;0.60;;
487;SDS011;16586;48.976;9.584;2022-09-09T03:21:19;1.63;;;0.70;;
487;SDS011;16586;48.976;9.584;2022-09-09T03:23:46;1.60;;;0.80;;
487;SDS011;16586;48.976;9.584;2022-09-09T03:26:13;2.58;;;0.70;;
487;SDS011;16586;48.976;9.584;2022-09-09T03:28:40;1.70;;;0.70;;
487;SDS011;16586;48.976;9.584;2022-09-09T03:31:08;0.98;;;0.50;;
487;SDS011;16586;48.976;9.584;2022-09-09T03:33:36;1.20;;;0.50;;
487;SDS011;16586;48.976;9.584;2022-09-09T03:36:04;3.05;;;0.90;;
487;SDS011;16586;48.976;9.584;2022-09-09T03:38:32;1.73;;;0.60;;
487;SDS011;16586;48.976;9.584;2022-09-09T03:40:59;1.08;;;0.60;;
487;SDS011;16586;48.976;9.584;2022-09-09T03:43:27;1.20;;;0.65;;
487;SDS011;16586;48.976;9.584;2022-09-09T03:45:54;1.40;;;0.70;;
487;SDS011;16586;48.976;9.584;2022-09-09T03:48:23;1.30;;;0.80;;
487;SDS011;16586;48.976;9.584;2022-09-09T03:50:53;1.10;;;0.60;;
487;SDS011;16586;48.976;9.584;2022-09-09T03:53:23;1.10;;;0.60;;
487;SDS011;16586;48.976;9.584;2022-09-09T03:55:51;1.20;;;0.80;;
487;SDS011;16586;48.976;9.584;2022-09-09T03:58:20;2.03;;;0.60;;
487;SDS011;16586;48.976;9.584;2022-09-09T04:00:55;1.02;;;0.50;;
487;SDS011;16586;48.976;9.584;2022-09-09T04:03:22;1.33;;;0.70;;
487;SDS011;16586;48.976;9.584;2022-09-09T04:05:50;1.00;;;0.60;;
487;SDS011;16586;48.976;9.584;2022-09-09T04:08:19;1.27;;;0.60;;
487;SDS011;16586;48.976;9.584;2022-09-09T04:10:47;1.30;;;0.80;;
487;SDS011;16586;48.976;9.584;2022-09-09T04:13:15;1.00;;;0.60;;
487;SDS011;16586;48.976;9.584;2022-09-09T04:15:43;1.10;;;0.70;;
487;SDS011;16586;48.976;9.584;2022-09-09T04:18:10;1.50;;;0.50;;
487;SDS011;16586;48.976;9.584;2022-09-09T04:20:40;1.75;;;0.80;;
487;SDS011;16586;48.976;9.584;2022-09-09T04:23:10;1.00;;;0.50;;
487;SDS011;16586;48.976;9.584;2022-09-09T04:25:37;1.70;;;0.70;;
487;SDS011;16586;48.976;9.584;2022-09-09T04:28:04;1.40;;;0.60;;
487;SDS011;16586;48.976;9.584;2022-09-09T04:30:31;1.60;;;0.60;;
487;SDS011;16586;48.976;9.584;2022-09-09T04:32:57;1.30;;;0.63;;
487;SDS011;16586;48.976;9.584;2022-09-09T04:35:24;1.20;;;0.60;;
487;SDS011;16586;48.976;9.584;2022-09-09T04:37:52;1.83;;;0.70;;
487;SDS011;16586;48.976;9.584;2022-09-09T04:40:20;1.80;;;0.60;;
487;SDS011;16586;48.976;9.584;2022-09-09T04:42:47;1.10;;;0.68;;
487;SDS011;16586;48.976;9.584;2022-09-09T04:45:15;1.10;;;0.60;;
487;SDS011;16586;48.976;9.584;2022-09-09T04:47:43;1.50;;;0.60;;
487;SDS011;16586;48.976;9.584;2022-09-09T04:50:10;1.35;;;0.60;;
487;SDS011;16586;48.976;9.584;2022-09-09T04:52:47;1.20;;;0.50;;
487;SDS011;16586;48.976;9.584;2022-09-09T04:55:15;1.90;;;0.60;;
487;SDS011;16586;48.976;9.584;2022-09-09T04:57:43;1.10;;;0.50;;
487;SDS011;16586;48.976;9.584;2022-09-09T05:00:10;1.42;;;0.60;;
487;SDS011;16586;48.976;9.584;2022-09-09T05:02:38;1.45;;;0.65;;
487;SDS011;16586;48.976;9.584;2022-09-09T05:05:07;2.10;;;0.60;;
487;SDS011;16586;48.976;9.584;2022-09-09T05:07:36;1.80;;;0.50;;
487;SDS011;16586;48.976;9.584;2022-09-09T05:10:03;0.90;;;0.50;;
487;SDS011;16586;48.976;9.584;2022-09-09T05:12:30;1.20;;;0.50;;
487;SDS011;16586;48.976;9.584;2022-09-09T05:14:59;1.10;;;0.60;;
487;SDS011;16586;48.976;9.584;2022-09-09T05:17:26;1.85;;;0.60;;
487;SDS011;16586;48.976;9.584;2022-09-09T05:19:52;1.20;;;0.60;;
487;SDS011;16586;48.976;9.584;2022-09-09T05:22:20;1.10;;;0.70;;
487;SDS011;16586;48.976;9.584;2022-09-09T05:24:48;1.77;;;0.60;;
487;SDS011;16586;48.976;9.584;2022-09-09T05:27:15;2.00;;;0.90;;
487;SDS011;16586;48.976;9.584;2022-09-09T05:29:43;1.20;;;0.60;;
487;SDS011;16586;48.976;9.584;2022-09-09T05:32:11;2.00;;;0.60;;
487;SDS011;16586;48.976;9.584;2022-09-09T05:34:40;1.30;;;0.60;;
487;SDS011;16586;48.976;9.584;2022-09-09T05:37:07;1.00;;;0.50;;
487;SDS011;16586;48.976;9.584;2022-09-09T05:39:34;1.20;;;0.68;;
487;SDS011;16586;48.976;9.584;2022-09-09T05:42:03;1.40;;;0.80;;
487;SDS011;16586;48.976;9.584;2022-09-09T05:44:31;1.40;;;0.70;;
487;SDS011;16586;48.976;9.584;2022-09-09T05:46:58;1.35;;;0.70;;
487;SDS011;16586;48.976;9.584;2022-09-09T05:49:26;2.10;;;0.80;;
487;SDS011;16586;48.976;9.584;2022-09-09T05:51:53;1.20;;;0.60;;
487;SDS011;16586;48.976;9.584;2022-09-09T05:54:20;1.23;;;0.70;;
487;SDS011;16586;48.976;9.584;2022-09-09T05:56:47;0.90;;;0.55;;
487;SDS011;16586;48.976;9.584;2022-09-09T05:59:16;1.63;;;1.08;;
487;SDS011;16586;48.976;9.584;2022-09-09T06:01:43;2.88;;;0.80;;
487;SDS011;16586;48.976;9.584;2022-09-09T06:04:10;1.60;;;0.80;;
487;SDS011;16586;48.976;9.584;2022-09-09T06:06:38;1.40;;;0.70;;
487;SDS011;16586;48.976;9.584;2022-09-09T06:09:07;1.27;;;0.70;;
487;SDS011;16586;48.976;9.584;2022-09-09T06:11:35;1.35;;;0.77;;
487;SDS011;16586;48.976;9.584;2022-09-09T06:14:04;1.30;;;0.80;;
487;SDS011;16586;48.976;9.584;2022-09-09T06:16:32;1.48;;;0.90;;
487;SDS011;16586;48.976;9.584;2022-09-09T06:18:59;1.50;;;0.70;;
487;SDS011;16586;48.976;9.584;2022-09-09T06:21:28;1.60;;;0.98;;
487;SDS011;16586;48.976;9.584;2022-09-09T06:23:59;1.67;;;0.82;;
487;SDS011;16586;48.976;9.584;2022-09-09T06:26:26;2.42;;;0.80;;
487;SDS011;16586;48.976;9.584;2022-09-09T06:28:55;2.25;;;1.10;;
487;SDS011;16586;48.976;9.584;2022-09-09T06:31:24;1.90;;;1.25;;
487;SDS011;16586;48.976;9.584;2022-09-09T06:33:55;2.20;;;1.17;;
487;SDS011;16586;48.976;9.584;2022-09-09T06:36:24;1.50;;;1.00;;
487;SDS011;16586;48.976;9.584;2022-09-09T06:38:51;1.63;;;0.80;;
487;SDS011;16586;48.976;9.584;2022-09-09T06:41:20;2.50;;;0.75;;
487;SDS011;16586;48.976;9.584;2022-09-09T06:43:48;2.23;;;1.30;;
487;SDS011;16586;48.976;9.584;2022-09-09T06:46:16;1.10;;;0.60;;
487;SDS011;16586;48.976;9.584;2022-09-09T06:48:44;1.30;;;0.70;;
487;SDS011;16586;48.976;9.584;2022-09-09T06:51:12;1.70;;;0.85;;
487;SDS011;16586;48.976;9.584;2022-09-09T06:53:41;1.35;;;0.80;;
487;SDS011;16586;48.976;9.584;2022-09-09T06:56:21;1.20;;;0.70;;
487;SDS011;16586;48.976;9.584;2022-09-09T06:58:50;1.60;;;0.70;;
487;SDS011;16586;48.976;9.584;2022-09-09T07:01:18;2.03;;;0.80;;
487;SDS011;16586;48.976;9.584;2022-09-09T07:03:47;1.42;;;0.80;;
487;SDS011;16586;48.976;9.584;2022-09-09T07:06:16;1.42;;;0.60;;
487;SDS011;16586;48.976;9.584;2022-09-09T07:08:47;2.00;;;1.10;;
487;SDS011;16586;48.976;9.584;2022-09-09T07:11:15;1.33;;;0.70;;
487;SDS011;16586;48.976;9.584;2022-09-09T07:13:43;1.27;;;0.80;;
487;SDS011;16586;48.976;9.584;2022-09-09T07:16:11;1.50;;;0.70;;
487;SDS011;16586;48.976;9.584;2022-09-09T07:18:39;1.50;;;0.88;;
487;SDS011;16586;48.976;9.584;2022-09-09T07:21:07;1.60;;;0.90;;
487;SDS011;16586;48.976;9.584;2022-09-09T07:23:36;1.80;;;0.75;;
487;SDS011;16586;48.976;9.584;2022-09-09T07:26:06;1.70;;;0.90;;
487;SDS011;16586;48.976;9.584;2022-09-09T07:28:34;2.50;;;1.20;;
487;SDS011;16586;48.976;9.584;2022-09-09T07:31:03;2.33;;;1.90;;
487;SDS011;16586;48.976;9.584;2022-09-09T07:33:31;2.50;;;2.08;;
487;SDS011;16586;48.976;9.584;2022-09-09T07:36:04;2.50;;;2.00;;
487;SDS011;16586;48.976;9.584;2022-09-09T07:38:36;3.30;;;2.60;;
487;SDS011;16586;48.976;9.584;2022-09-09T07:41:05;3.20;;;2.60;;
487;SDS011;16586;48.976;9.584;2022-09-09T07:43:36;4.03;;;3.20;;
487;SDS011;16586;48.976;9.584;2022-09-09T07:46:06;3.90;;;2.90;;
487;SDS011;16586;48.976;9.584;2022-09-09T07:48:33;3.60;;;3.00;;
487;SDS011;16586;48.976;9.584;2022-09-09T07:51:04;3.75;;;2.92;;
487;SDS011;16586;48.976;9.584;2022-09-09T07:53:33;1.85;;;1.00;;
487;SDS011;16586;48.976;9.584;2022-09-09T07:56:05;1.90;;;1.45;;
487;SDS011;16586;48.976;9.584;2022-09-09T07:58:34;2.10;;;0.82;;
487;SDS011;16586;48.976;9.584;2022-09-09T08:01:07;2.05;;;0.70;;
487;SDS011;16586;48.976;9.584;2022-09-09T08:03:35;1.10;;;0.60;;
487;SDS011;16586;48.976;9.584;2022-09-09T08:06:02;1.30;;;0.60;;
487;SDS011;16586;48.976;9.584;2022-09-09T08:08:32;1.52;;;0.50;;
487;SDS011;16586;48.976;9.584;2022-09-09T08:11:03;1.70;;;0.70;;
487;SDS011;16586;48.976;9.584;2022-09-09T08:13:32;1.50;;;0.70;;
487;SDS011;16586;48.976;9.584;2022-09-09T08:16:07;1.67;;;0.70;;
487;SDS011;16586;48.976;9.584;2022-09-09T08:18:36;1.70;;;0.60;;
487;SDS011;16586;48.976;9.584;2022-09-09T08:21:05;1.25;;;0.50;;
487;SDS011;16586;48.976;9.584;2022-09-09T08:23:34;2.22;;;0.75;;
487;SDS011;16586;48.976;9.584;2022-09-09T08:26:08;1.50;;;0.50;;
487;SDS011;16586;48.976;9.584;2022-09-09T08:28:47;1.30;;;0.60;;
487;SDS011;16586;48.976;9.584;2022-09-09T08:31:18;1.40;;;0.50;;
487;SDS011;16586;48.976;9.584;2022-09-09T08:33:47;1.23;;;0.50;;
487;SDS011;16586;48.976;9.584;2022-09-09T08:36:15;2.10;;;1.00;;
487;SDS011;16586;48.976;9.584;2022-09-09T08:38:43;1.77;;;0.60;;
487;SDS011;16586;48.976;9.584;2022-09-09T08:41:26;1.35;;;0.50;;
487;SDS011;16586;48.976;9.584;2022-09-09T08:44:07;1.80;;;0.60;;
487;SDS011;16586;48.976;9.584;2022-09-09T08:46:44;2.08;;;0.60;;
487;SDS011;16586;48.976;9.584;2022-09-09T08:49:21;2.63;;;0.60;;
487;SDS011;16586;48.976;9.584;2022-09-09T08:52:16;2.80;;;0.80;;
487;SDS011;16586;48.976;9.584;2022-09-09T08:54:46;2.20;;;0.60;;
487;SDS011;16586;48.976;9.584;2022-09-09T08:57:14;1.30;;;0.50;;
487;SDS011;16586;48.976;9.584;2022-09-09T08:59:46;1.80;;;0.40;;
487;SDS011;16586;48.976;9.584;2022-09-09T09:02:16;1.65;;;0.50;;
487;SDS011;16586;48.976;9.584;2022-09-09T09:04:50;1.60;;;0.60;;
487;SDS011;16586;48.976;9.584;2022-09-09T09:07:33;1.60;;;0.50;;
487;SDS011;16586;48.976;9.584;2022-09-09T09:10:10;2.15;;;0.65;;
487;SDS011;16586;48.976;9.584;2022-09-09T09:12:43;1.60;;;0.60;;
487;SDS011;16586;48.976;9.584;2022-09-09T09:15:14;1.60;;;0.60;;
487;SDS011;16586;48.976;9.584;2022-09-09T09:17:47;1.00;;;0.45;;
487;SDS011;16586;48.976;9.584;2022-09-09T09:20:15;1.10;;;0.50;;
487;SDS011;16586;48.976;9.584;2022-09-09T09:22:46;1.85;;;0.68;;
487;SDS011;16586;48.976;9.584;2022-09-09T09:25:17;2.33;;;0.60;;
487;SDS011;16586;48.976;9.584;2022-09-09T09:27:49;4.70;;;3.70;;
487;SDS011;16586;48.976;9.584;2022-09-09T09:30:25;1.60;;;0.60;;
487;SDS011;16586;48.976;9.584;2022-09-09T09:32:58;1.50;;;0.52;;
487;SDS011;16586;48.976;9.584;2022-09-09T09:35:28;2.53;;;0.95;;
487;SDS011;16586;48.976;9.584;2022-09-09T09:37:55;1.88;;;0.50;;
487;SDS011;16586;48.976;9.584;2022-09-09T09:40:22;1.48;;;0.50;;
487;SDS011;16586;48.976;9.584;2022-09-09T09:42:51;1.45;;;1.00;;
487;SDS011;16586;48.976;9.584;2022-09-09T09:45:25;2.70;;;0.70;;
487;SDS011;16586;48.976;9.584;2022-09-09T09:48:01;2.17;;;0.60;;
487;SDS011;16586;48.976;9.584;2022-09-09T09:50:30;2.70;;;0.50;;
487;SDS011;16586;48.976;9.584;2022-09-09T09:52:59;1.25;;;0.57;;
487;SDS011;16586;48.976;9.584;2022-09-09T09:55:29;1.77;;;0.65;;
487;SDS011;16586;48.976;9.584;2022-09-09T09:58:02;2.00;;;0.60;;
487;SDS011;16586;48.976;9.584;2022-09-09T10:00:30;2.40;;;0.80;;
487;SDS011;16586;48.976;9.584;2022-09-09T10:03:01;2.53;;;0.73;;
487;SDS011;16586;48.976;9.584;2022-09-09T10:05:45;1.38;;;0.60;;
487;SDS011;16586;48.976;9.584;2022-09-09T10:08:13;1.80;;;0.60;;
487;SDS011;16586;48.976;9.584;2022-09-09T10:10:56;2.10;;;0.80;;
487;SDS011;16586;48.976;9.584;2022-09-09T10:13:35;1.80;;;0.70;;
487;SDS011;16586;48.976;9.584;2022-09-09T10:16:11;1.85;;;0.70;;
487;SDS011;16586;48.976;9.584;2022-09-09T10:18:55;1.10;;;0.70;;
487;SDS011;16586;48.976;9.584;2022-09-09T10:21:32;1.50;;;0.60;;
487;SDS011;16586;48.976;9.584;2022-09-09T10:24:13;1.42;;;0.50;;
487;SDS011;16586;48.976;9.584;2022-09-09T10:26:58;1.75;;;0.50;;
487;SDS011;16586;48.976;9.584;2022-09-09T10:29:35;2.60;;;0.50;;
487;SDS011;16586;48.976;9.584;2022-09-09T10:32:38;1.30;;;0.50;;
487;SDS011;16586;48.976;9.584;2022-09-09T10:35:25;1.70;;;0.50;;
487;SDS011;16586;48.976;9.584;2022-09-09T10:41:00;1.27;;;0.50;;
487;SDS011;16586;48.976;9.584;2022-09-09T10:43:40;1.80;;;0.57;;
487;SDS011;16586;48.976;9.584;2022-09-09T10:46:31;1.00;;;0.40;;
487;SDS011;16586;48.976;9.584;2022-09-09T10:49:10;1.20;;;0.55;;
487;SDS011;16586;48.976;9.584;2022-09-09T10:51:48;1.80;;;0.60;;
487;SDS011;16586;48.976;9.584;2022-09-09T10:54:25;2.00;;;0.50;;
487;SDS011;16586;48.976;9.584;2022-09-09T10:57:02;1.65;;;0.50;;
487;SDS011;16586;48.976;9.584;2022-09-09T10:59:35;2.83;;;0.60;;
487;SDS011;16586;48.976;9.584;2022-09-09T11:02:10;1.95;;;0.50;;
487;SDS011;16586;48.976;9.584;2022-09-09T11:04:42;1.80;;;0.50;;
487;SDS011;16586;48.976;9.584;2022-09-09T11:07:18;1.45;;;0.40;;
487;SDS011;16586;48.976;9.584;2022-09-09T11:09:53;1.02;;;0.40;;
487;SDS011;16586;48.976;9.584;2022-09-09T11:12:26;1.20;;;0.40;;
487;SDS011;16586;48.976;9.584;2022-09-09T11:14:57;1.27;;;0.50;;
487;SDS011;16586;48.976;9.584;2022-09-09T11:17:33;1.10;;;0.50;;
487;SDS011;16586;48.976;9.584;2022-09-09T11:20:10;1.80;;;0.60;;
487;SDS011;16586;48.976;9.584;2022-09-09T11:22:42;1.40;;;0.40;;
487;SDS011;16586;48.976;9.584;2022-09-09T11:25:15;1.52;;;0.50;;
487;SDS011;16586;48.976;9.584;2022-09-09T11:27:51;2.10;;;0.50;;
487;SDS011;16586;48.976;9.584;2022-09-09T11:30:33;1.05;;;0.40;;
487;SDS011;16586;48.976;9.584;2022-09-09T11:33:31;1.00;;;0.40;;
487;SDS011;16586;48.976;9.584;2022-09-09T11:39:07;2.30;;;0.50;;
487;SDS011;16586;48.976;9.584;2022-09-09T11:41:52;1.50;;;0.50;;
487;SDS011;16586;48.976;9.584;2022-09-09T11:44:20;1.40;;;0.60;;
487;SDS011;16586;48.976;9.584;2022-09-09T11:46:55;2.20;;;0.70;;
487;SDS011;16586;48.976;9.584;2022-09-09T11:49:26;1.50;;;0.50;;
487;SDS011;16586;48.976;9.584;2022-09-09T11:51:54;1.80;;;0.70;;
487;SDS011;16586;48.976;9.584;2022-09-09T11:54:29;1.50;;;0.50;;
487;SDS011;16586;48.976;9.584;2022-09-09T11:56:58;2.90;;;0.50;;
487;SDS011;16586;48.976;9.584;2022-09-09T11:59:26;1.80;;;0.60;;
487;SDS011;16586;48.976;9.584;2022-09-09T12:02:14;1.63;;;0.50;;
487;SDS011;16586;48.976;9.584;2022-09-09T12:04:49;2.63;;;0.80;;
487;SDS011;16586;48.976;9.584;2022-09-09T12:07:30;2.30;;;0.90;;
487;SDS011;16586;48.976;9.584;2022-09-09T12:10:02;2.50;;;0.70;;
487;SDS011;16586;48.976;9.584;2022-09-09T12:12:33;1.70;;;0.68;;
487;SDS011;16586;48.976;9.584;2022-09-09T12:15:03;2.20;;;1.10;;
487;SDS011;16586;48.976;9.584;2022-09-09T12:17:46;2.40;;;0.70;;
487;SDS011;16586;48.976;9.584;2022-09-09T12:20:15;1.60;;;0.70;;
487;SDS011;16586;48.976;9.584;2022-09-09T12:22:46;2.20;;;0.80;;
487;SDS011;16586;48.976;9.584;2022-09-09T12:25:29;1.38;;;0.70;;
487;SDS011;16586;48.976;9.584;2022-09-09T12:28:17;2.10;;;0.70;;
487;SDS011;16586;48.976;9.584;2022-09-09T12:30:47;1.90;;;0.60;;
487;SDS011;16586;48.976;9.584;2022-09-09T12:33:21;1.40;;;0.55;;
487;SDS011;16586;48.976;9.584;2022-09-09T12:35:50;2.70;;;0.75;;
487;SDS011;16586;48.976;9.584;2022-09-09T12:38:22;2.30;;;0.70;;
487;SDS011;16586;48.976;9.584;2022-09-09T12:40:57;1.70;;;0.70;;
487;SDS011;16586;48.976;9.584;2022-09-09T12:43:26;1.98;;;0.70;;
487;SDS011;16586;48.976;9.584;2022-09-09T12:45:54;1.60;;;0.80;;
487;SDS011;16586;48.976;9.584;2022-09-09T12:48:27;2.30;;;1.07;;
487;SDS011;16586;48.976;9.584;2022-09-09T12:50:57;1.67;;;0.80;;
487;SDS011;16586;48.976;9.584;2022-09-09T12:53:26;1.77;;;0.70;;
487;SDS011;16586;48.976;9.584;2022-09-09T12:55:58;1.10;;;0.60;;
487;SDS011;16586;48.976;9.584;2022-09-09T12:58:27;1.50;;;0.70;;
487;SDS011;16586;48.976;9.584;2022-09-09T13:00:57;1.60;;;0.70;;
487;SDS011;16586;48.976;9.584;2022-09-09T13:03:26;2.50;;;0.70;;
487;SDS011;16586;48.976;9.584;2022-09-09T13:05:56;1.20;;;0.50;;
487;SDS011;16586;48.976;9.584;2022-09-09T13:08:25;1.80;;;0.60;;
487;SDS011;16586;48.976;9.584;2022-09-09T13:10:53;1.20;;;0.60;;
487;SDS011;16586;48.976;9.584;2022-09-09T13:13:27;1.80;;;0.50;;
487;SDS011;16586;48.976;9.584;2022-09-09T13:15:58;2.10;;;0.60;;
487;SDS011;16586;48.976;9.584;2022-09-09T13:18:27;1.10;;;0.40;;
487;SDS011;16586;48.976;9.584;2022-09-09T13:20:56;1.67;;;0.45;;
487;SDS011;16586;48.976;9.584;2022-09-09T13:23:25;1.20;;;0.40;;
487;SDS011;16586;48.976;9.584;2022-09-09T13:25:54;1.20;;;0.50;;
487;SDS011;16586;48.976;9.584;2022-09-09T13:28:23;1.00;;;0.40;;
487;SDS011;16586;48.976;9.584;2022-09-09T13:30:55;1.35;;;0.40;;
487;SDS011;16586;48.976;9.584;2022-09-09T13:33:29;1.48;;;0.50;;
487;SDS011;16586;48.976;9.584;2022-09-09T13:35:58;3.30;;;0.50;;
487;SDS011;16586;48.976;9.584;2022-09-09T13:38:29;1.00;;;0.40;;
487;SDS011;16586;48.976;9.584;2022-09-09T13:40:59;1.20;;;0.40;;
487;SDS011;16586;48.976;9.584;2022-09-09T13:43:31;1.70;;;0.50;;
487;SDS011;16586;48.976;9.584;2022-09-09T13:46:02;1.30;;;0.50;;
487;SDS011;16586;48.976;9.584;2022-09-09T13:48:31;3.13;;;0.50;;
487;SDS011;16586;48.976;9.584;2022-09-09T13:50:59;1.40;;;0.40;;
487;SDS011;16586;48.976;9.584;2022-09-09T13:53:28;1.10;;;0.50;;
487;SDS011;16586;48.976;9.584;2022-09-09T13:55:58;2.00;;;0.50;;
487;SDS011;16586;48.976;9.584;2022-09-09T13:58:27;1.42;;;0.65;;
487;SDS011;16586;48.976;9.584;2022-09-09T14:00:56;1.10;;;0.50;;
487;SDS011;16586;48.976;9.584;2022-09-09T14:03:26;1.40;;;0.50;;
487;SDS011;16586;48.976;9.584;2022-09-09T14:05:52;0.90;;;0.40;;
487;SDS011;16586;48.976;9.584;2022-09-09T14:08:22;1.60;;;0.70;;
487;SDS011;16586;48.976;9.584;2022-09-09T14:10:51;2.30;;;0.82;;
487;SDS011;16586;48.976;9.584;2022-09-09T14:13:18;1.50;;;0.80;;
487;SDS011;16586;48.976;9.584;2022-09-09T14:15:48;1.40;;;0.80;;
487;SDS011;16586;48.976;9.584;2022-09-09T14:18:17;1.87;;;1.20;;
487;SDS011;16586;48.976;9.584;2022-09-09T14:20:44;1.93;;;1.40;;
487;SDS011;16586;48.976;9.584;2022-09-09T14:23:11;1.70;;;1.10;;
487;SDS011;16586;48.976;9.584;2022-09-09T14:25:41;2.40;;;1.60;;
487;SDS011;16586;48.976;9.584;2022-09-09T14:28:12;2.17;;;1.63;;
487;SDS011;16586;48.976;9.584;2022-09-09T14:30:40;2.45;;;1.50;;
487;SDS011;16586;48.976;9.584;2022-09-09T14:33:09;2.80;;;2.17;;
487;SDS011;16586;48.976;9.584;2022-09-09T14:35:39;2.13;;;1.57;;
487;SDS011;16586;48.976;9.584;2022-09-09T14:38:07;1.75;;;1.20;;
487;SDS011;16586;48.976;9.584;2022-09-09T14:40:37;2.10;;;1.65;;
487;SDS011;16586;48.976;9.584;2022-09-09T14:43:05;2.72;;;1.63;;
487;SDS011;16586;48.976;9.584;2022-09-09T14:45:32;2.50;;;1.80;;
487;SDS011;16586;48.976;9.584;2022-09-09T14:47:59;2.70;;;2.03;;
487;SDS011;16586;48.976;9.584;2022-09-09T14:50:27;2.78;;;1.90;;
487;SDS011;16586;48.976;9.584;2022-09-09T14:52:56;3.70;;;2.47;;
487;SDS011;16586;48.976;9.584;2022-09-09T14:55:23;3.45;;;3.28;;
487;SDS011;16586;48.976;9.584;2022-09-09T14:57:50;2.50;;;1.70;;
487;SDS011;16586;48.976;9.584;2022-09-09T15:00:17;2.60;;;2.00;;
487;SDS011;16586;48.976;9.584;2022-09-09T15:02:44;2.08;;;1.50;;
487;SDS011;16586;48.976;9.584;2022-09-09T15:05:12;3.13;;;2.03;;
487;SDS011;16586;48.976;9.584;2022-09-09T15:07:45;2.35;;;1.77;;
487;SDS011;16586;48.976;9.584;2022-09-09T15:10:17;2.70;;;1.83;;
487;SDS011;16586;48.976;9.584;2022-09-09T15:12:50;2.00;;;1.50;;
487;SDS011;16586;48.976;9.584;2022-09-09T15:15:20;2.00;;;1.30;;
487;SDS011;16586;48.976;9.584;2022-09-09T15:17:51;2.45;;;1.25;;
487;SDS011;16586;48.976;9.584;2022-09-09T15:20:21;1.42;;;0.93;;
487;SDS011;16586;48.976;9.584;2022-09-09T15:22:49;2.17;;;1.70;;
487;SDS011;16586;48.976;9.584;2022-09-09T15:25:19;2.28;;;1.35;;
487;SDS011;16586;48.976;9.584;2022-09-09T15:27:47;2.17;;;1.00;;
487;SDS011;16586;48.976;9.584;2022-09-09T15:30:17;2.30;;;0.75;;
487;SDS011;16586;48.976;9.584;2022-09-09T15:32:59;1.40;;;0.70;;
487;SDS011;16586;48.976;9.584;2022-09-09T15:35:26;1.90;;;1.20;;
487;SDS011;16586;48.976;9.584;2022-09-09T15:37:55;1.80;;;0.52;;
487;SDS011;16586;48.976;9.584;2022-09-09T15:40:25;1.60;;;0.60;;
487;SDS011;16586;48.976;9.584;2022-09-09T15:42:52;1.17;;;0.80;;
487;SDS011;16586;48.976;9.584;2022-09-09T15:45:18;1.10;;;0.57;;